createdAt,value
2019-03-28T00:02:58.671Z,100495.82
2019-03-28T00:06:05.092Z,100495.25
2019-03-28T00:09:11.494Z,100499.77
2019-03-28T00:12:17.793Z,100505.64
2019-03-28T00:15:24.070Z,100511.30
2019-03-28T00:18:30.402Z,100511.39
2019-03-28T00:21:36.680Z,100518.70
2019-03-28T00:24:54.587Z,100520.59
2019-03-28T00:28:00.862Z,100531.16
2019-03-28T00:31:07.175Z,100547.22
2019-03-28T00:34:13.472Z,100555.08
2019-03-28T00:37:19.822Z,100564.81
2019-03-28T00:40:26.282Z,100560.44
2019-03-28T00:43:32.613Z,100556.19
2019-03-28T00:46:38.870Z,100565.92
2019-03-28T00:49:45.232Z,100557.00
2019-03-28T00:52:51.489Z,100571.38
2019-03-28T00:55:57.864Z,100573.13
2019-03-28T00:59:04.198Z,100571.35
2019-03-28T01:02:10.466Z,100575.07
2019-03-28T01:05:17.201Z,100573.88
2019-03-28T01:08:23.775Z,100574.70
2019-03-28T01:11:30.133Z,100579.55
2019-03-28T01:14:36.603Z,100590.23
2019-03-28T01:17:43.080Z,100593.22
2019-03-28T01:20:49.405Z,100591.89
2019-03-28T01:23:55.730Z,100599.04
2019-03-28T01:27:02.072Z,100603.25
2019-03-28T01:30:08.637Z,100600.77
2019-03-28T01:33:14.922Z,100599.59
2019-03-28T01:36:21.229Z,100604.72
2019-03-28T01:39:27.534Z,100611.03
2019-03-28T01:42:34.732Z,100608.53
2019-03-28T01:45:41.044Z,100604.05
2019-03-28T01:48:47.332Z,100600.42
2019-03-28T01:51:53.659Z,100599.13
2019-03-28T01:54:59.924Z,100602.84
2019-03-28T01:58:06.192Z,100604.02
2019-03-28T02:01:12.678Z,100602.09
2019-03-28T02:04:19.029Z,100616.72
2019-03-28T02:07:25.434Z,100608.96
2019-03-28T02:10:31.703Z,100613.50
2019-03-28T02:13:38.043Z,100612.66
2019-03-28T02:16:44.359Z,100614.62
2019-03-28T02:19:50.728Z,100618.73
2019-03-28T02:22:56.998Z,100610.60
2019-03-28T02:26:03.362Z,100622.97
2019-03-28T02:29:09.662Z,100637.11
2019-03-28T02:32:16.001Z,100636.17
2019-03-28T02:35:22.276Z,100644.95
2019-03-28T02:38:28.677Z,100640.19
2019-03-28T02:41:35.228Z,100638.98
2019-03-28T02:44:41.551Z,100644.13
2019-03-28T02:47:47.863Z,100634.86
2019-03-28T02:50:54.110Z,100648.05
2019-03-28T02:54:00.443Z,100639.01
2019-03-28T02:57:07.744Z,100637.11
2019-03-28T03:00:15.975Z,100641.27
2019-03-28T03:03:22.364Z,100650.54
2019-03-28T03:06:28.626Z,100648.27
2019-03-28T03:09:34.954Z,100647.99
2019-03-28T03:12:41.428Z,100656.16
2019-03-28T03:15:47.997Z,100656.48
2019-03-28T03:18:54.264Z,100664.43
2019-03-28T03:22:00.675Z,100662.29
2019-03-28T03:25:07.465Z,100664.27
2019-03-28T03:28:13.782Z,100671.44
2019-03-28T03:31:21.372Z,100673.34
2019-03-28T03:34:28.209Z,100679.56
2019-03-28T03:37:34.463Z,100682.27
2019-03-28T03:40:40.855Z,100687.97
2019-03-28T03:43:47.226Z,100686.05
2019-03-28T03:46:54.531Z,100685.69
2019-03-28T03:50:00.854Z,100689.56
2019-03-28T03:53:07.571Z,100687.87
2019-03-28T03:56:14.259Z,100686.61
2019-03-28T03:59:20.689Z,100689.31
2019-03-28T04:02:27.052Z,100695.94
2019-03-28T04:05:33.626Z,100686.10
2019-03-28T04:08:39.937Z,100695.29
2019-03-28T04:11:46.179Z,100688.52
2019-03-28T04:14:52.567Z,100683.41
2019-03-28T04:17:58.835Z,100690.06
2019-03-28T04:21:05.123Z,100702.64
2019-03-28T04:24:11.463Z,100699.42
2019-03-28T04:27:17.722Z,100705.89
2019-03-28T04:30:24.088Z,100708.81
2019-03-28T04:33:30.361Z,100718.87
2019-03-28T04:36:36.738Z,100718.36
2019-03-28T04:39:43.260Z,100724.14
2019-03-28T04:42:49.577Z,100729.25
2019-03-28T04:45:56.479Z,100727.88
2019-03-28T04:49:02.948Z,100736.61
2019-03-28T04:52:09.353Z,100737.94
2019-03-28T04:55:15.821Z,100735.73
2019-03-28T04:58:23.301Z,100745.36
2019-03-28T05:01:29.999Z,100743.80
2019-03-28T05:04:36.369Z,100748.58
2019-03-28T05:07:42.630Z,100750.72
2019-03-28T05:10:48.932Z,100749.98
2019-03-28T05:13:55.204Z,100756.16
2019-03-28T05:17:01.716Z,100759.01
2019-03-28T05:20:09.251Z,100759.03
2019-03-28T05:23:15.585Z,100755.48
2019-03-28T05:26:21.939Z,100760.23
2019-03-28T05:29:28.230Z,100766.98
2019-03-28T05:32:34.491Z,100766.53
2019-03-28T05:35:40.759Z,100776.01
2019-03-28T05:38:47.090Z,100770.56
2019-03-28T05:41:53.368Z,100771.28
2019-03-28T05:44:59.667Z,100775.77
2019-03-28T05:48:06.036Z,100778.78
2019-03-28T05:51:12.305Z,100782.14
2019-03-28T05:54:18.651Z,100777.98
2019-03-28T05:57:24.979Z,100781.23
2019-03-28T06:00:31.256Z,100783.05
2019-03-28T06:03:37.684Z,100779.67
2019-03-28T06:06:44.314Z,100775.69
2019-03-28T06:09:50.958Z,100777.86
2019-03-28T06:12:57.263Z,100783.84
2019-03-28T06:16:03.587Z,100790.97
2019-03-28T06:19:10.452Z,100788.97
2019-03-28T06:22:17.842Z,100804.30
2019-03-28T06:25:24.224Z,100803.63
2019-03-28T06:28:30.554Z,100806.30
2019-03-28T06:31:36.865Z,100803.06
2019-03-28T06:34:43.196Z,100803.06
2019-03-28T06:37:51.453Z,100807.91
2019-03-28T06:40:57.514Z,100809.44
2019-03-28T06:44:04.144Z,100805.01
2019-03-28T06:47:10.410Z,100807.16
2019-03-28T06:50:17.013Z,100809.21
2019-03-28T06:53:23.322Z,100810.59
2019-03-28T06:56:29.721Z,100815.52
2019-03-28T06:59:37.614Z,100820.58
2019-03-28T07:02:44.254Z,100810.45
2019-03-28T07:05:50.549Z,100815.47
2019-03-28T07:08:56.814Z,100820.27
2019-03-28T07:12:03.110Z,100821.16
2019-03-28T07:15:09.822Z,100820.86
2019-03-28T07:18:16.192Z,100817.97
2019-03-28T07:21:22.461Z,100820.80
2019-03-28T07:24:28.770Z,100824.48
2019-03-28T07:27:35.428Z,100831.88
2019-03-28T07:30:41.767Z,100831.42
2019-03-28T07:33:48.077Z,100833.41
2019-03-28T07:36:54.351Z,100835.75
2019-03-28T07:40:00.740Z,100827.48
2019-03-28T07:43:08.197Z,100835.84
2019-03-28T07:46:14.521Z,100839.42
2019-03-28T07:49:20.948Z,100835.34
2019-03-28T07:52:27.608Z,100833.00
2019-03-28T07:55:34.232Z,100834.52
2019-03-28T07:58:40.662Z,100835.65
2019-03-28T08:01:47.022Z,100828.52
2019-03-28T08:04:53.335Z,100826.52
2019-03-28T08:08:00.694Z,100833.31
2019-03-28T08:11:07.031Z,100837.03
2019-03-28T08:14:13.518Z,100840.49
2019-03-28T08:17:19.802Z,100837.23
2019-03-28T08:20:26.085Z,100840.77
2019-03-28T08:23:35.160Z,100843.31
2019-03-28T08:26:40.525Z,100836.91
2019-03-28T08:29:47.907Z,100841.77
2019-03-28T08:32:54.244Z,100853.36
2019-03-28T08:36:00.655Z,100840.75
2019-03-28T08:39:08.152Z,100845.56
2019-03-28T08:42:14.524Z,100841.55
2019-03-28T08:45:20.880Z,100840.16
2019-03-28T08:48:27.152Z,100839.06
2019-03-28T08:51:33.532Z,100838.97
2019-03-28T08:54:39.770Z,100838.06
2019-03-28T08:57:46.123Z,100832.73
2019-03-28T09:00:53.122Z,100834.62
2019-03-28T09:03:59.611Z,100838.89
2019-03-28T09:07:06.396Z,100842.97
2019-03-28T09:10:12.954Z,100841.13
2019-03-28T09:13:19.544Z,100832.44
2019-03-28T09:16:25.886Z,100839.11
2019-03-28T09:19:32.223Z,100834.38
2019-03-28T09:22:39.087Z,100833.75
2019-03-28T09:25:45.548Z,100836.59
2019-03-28T09:28:52.839Z,100835.73
2019-03-28T09:31:59.838Z,100827.00
2019-03-28T09:35:07.331Z,100832.28
2019-03-28T09:38:13.574Z,100817.08
2019-03-28T09:41:19.948Z,100821.61
2019-03-28T09:44:26.343Z,100823.11
2019-03-28T09:47:32.641Z,100820.30
2019-03-28T09:50:39.103Z,100801.02
2019-03-28T09:53:45.459Z,100800.49
2019-03-28T09:56:51.750Z,100806.69
2019-03-28T09:59:58.037Z,100803.07
2019-03-28T10:03:04.384Z,100809.83
2019-03-28T10:06:10.768Z,100807.94
2019-03-28T10:09:17.075Z,100810.95
2019-03-28T10:12:23.597Z,100805.63
2019-03-28T10:15:29.917Z,100807.05
2019-03-28T10:18:36.221Z,100804.12
2019-03-28T10:21:42.519Z,100812.75
2019-03-28T10:24:48.892Z,100807.35
2019-03-28T10:27:55.224Z,100799.75
2019-03-28T10:31:01.513Z,100802.72
2019-03-28T10:34:07.887Z,100793.69
2019-03-28T10:37:14.260Z,100787.29
2019-03-28T10:40:20.610Z,100782.44
2019-03-28T10:43:27.347Z,100781.42
2019-03-28T10:46:33.638Z,100774.48
2019-03-28T10:49:40.011Z,100773.56
2019-03-28T10:52:46.339Z,100766.30
2019-03-28T10:55:52.598Z,100757.29
2019-03-28T10:58:58.938Z,100751.79
2019-03-28T11:02:05.727Z,100752.13
2019-03-28T11:05:12.234Z,100752.62
2019-03-28T11:08:18.519Z,100745.05
2019-03-28T11:11:24.805Z,100741.27
2019-03-28T11:14:31.230Z,100731.02
2019-03-28T11:17:37.622Z,100726.52
2019-03-28T11:20:44.050Z,100728.56
2019-03-28T11:23:50.423Z,100723.61
2019-03-28T11:26:57.676Z,100710.92
2019-03-28T11:30:04.233Z,100710.36
2019-03-28T11:33:10.638Z,100705.66
2019-03-28T11:36:17.005Z,100696.98
2019-03-28T11:39:23.343Z,100685.64
2019-03-28T11:42:29.649Z,100679.56
2019-03-28T11:45:36.136Z,100671.64
2019-03-28T11:48:42.436Z,100672.73
2019-03-28T11:51:48.734Z,100659.44
2019-03-28T11:54:55.124Z,100657.36
2019-03-28T11:58:01.512Z,100647.73
2019-03-28T12:01:07.784Z,100648.56
2019-03-28T12:04:14.193Z,100645.73
2019-03-28T12:07:20.489Z,100638.45
2019-03-28T12:10:27.982Z,100637.13
2019-03-28T12:13:44.038Z,100639.12
2019-03-28T12:16:42.513Z,100628.95
2019-03-28T12:19:49.045Z,100628.20
2019-03-28T12:22:56.184Z,100618.95
2019-03-28T12:26:03.597Z,100616.34
2019-03-28T12:29:10.965Z,100608.23
2019-03-28T12:32:17.338Z,100605.86
2019-03-28T12:35:23.665Z,100593.48
2019-03-28T12:38:29.966Z,100590.08
2019-03-28T12:41:36.233Z,100584.50
2019-03-28T12:44:56.043Z,100584.27
2019-03-28T12:47:50.726Z,100579.22
2019-03-28T12:50:58.935Z,100574.52
2019-03-28T12:54:05.228Z,100573.44
2019-03-28T12:57:14.282Z,100556.00
2019-03-28T13:00:22.843Z,100564.34
2019-03-28T13:03:34.785Z,100562.06
2019-03-28T13:06:37.192Z,100554.24
2019-03-28T13:09:43.452Z,100554.59
2019-03-28T13:12:51.370Z,100548.81
2019-03-28T13:15:57.657Z,100545.18
2019-03-28T13:19:04.015Z,100539.13
2019-03-28T13:22:10.420Z,100533.84
2019-03-28T13:25:16.893Z,100527.14
2019-03-28T13:28:23.197Z,100533.81
2019-03-28T13:31:29.520Z,100528.72
2019-03-28T13:34:35.845Z,100520.83
2019-03-28T13:37:42.274Z,100525.76
2019-03-28T13:40:48.594Z,100522.84
2019-03-28T13:43:54.974Z,100514.04
2019-03-28T13:47:01.246Z,100510.05
2019-03-28T13:50:08.704Z,100505.98
2019-03-28T13:53:15.050Z,100495.17
2019-03-28T13:56:21.558Z,100499.89
2019-03-28T13:59:28.094Z,100503.34
2019-03-28T14:02:34.532Z,100498.53
2019-03-28T14:05:40.809Z,100500.52
2019-03-28T14:08:47.289Z,100491.45
2019-03-28T14:11:53.605Z,100500.12
2019-03-28T14:14:59.991Z,100492.92
2019-03-28T14:18:06.376Z,100495.31
2019-03-28T14:21:12.672Z,100491.59
2019-03-28T14:24:20.054Z,100490.28
2019-03-28T14:27:26.400Z,100492.92
2019-03-28T14:30:32.808Z,100489.17
2019-03-28T14:33:39.216Z,100489.88
2019-03-28T14:36:45.473Z,100495.86
2019-03-28T14:39:51.821Z,100488.33
2019-03-28T14:42:58.152Z,100489.86
2019-03-28T14:46:04.684Z,100481.96
2019-03-28T14:49:11.443Z,100484.47
2019-03-28T14:52:17.920Z,100475.98
2019-03-28T14:55:24.506Z,100474.27
2019-03-28T14:58:32.518Z,100473.25
2019-03-28T15:01:38.967Z,100475.55
2019-03-28T15:04:45.288Z,100475.23
2019-03-28T15:07:51.780Z,100477.41
2019-03-28T15:10:58.148Z,100473.60
2019-03-28T15:14:04.532Z,100468.45
2019-03-28T15:17:10.992Z,100465.95
2019-03-28T15:20:17.406Z,100472.88
2019-03-28T15:23:23.886Z,100477.34
2019-03-28T15:26:30.446Z,100475.94
2019-03-28T15:29:36.697Z,100471.82
2019-03-28T15:32:43.021Z,100465.22
2019-03-28T15:35:49.427Z,100465.64
2019-03-28T15:38:55.945Z,100471.45
2019-03-28T15:42:02.456Z,100468.44
2019-03-28T15:45:09.195Z,100466.36
2019-03-28T15:48:15.656Z,100465.33
2019-03-28T15:51:22.186Z,100464.08
2019-03-28T15:54:28.431Z,100466.91
2019-03-28T15:57:34.716Z,100465.53
2019-03-28T16:00:41.718Z,100466.78
2019-03-28T16:03:53.171Z,100469.27
2019-03-28T16:06:56.437Z,100476.12
2019-03-28T16:10:02.936Z,100471.63
2019-03-28T16:13:09.418Z,100475.83
2019-03-28T16:16:15.707Z,100477.61
2019-03-28T16:19:22.067Z,100474.09
2019-03-28T16:22:29.392Z,100476.49
2019-03-28T16:25:35.742Z,100477.20
2019-03-28T16:28:42.100Z,100479.34
2019-03-28T16:31:48.373Z,100478.38
2019-03-28T16:34:54.698Z,100484.17
2019-03-28T16:38:01.041Z,100477.97
2019-03-28T16:41:07.324Z,100485.95
2019-03-28T16:44:13.694Z,100479.78
2019-03-28T16:47:20.019Z,100489.66
2019-03-28T16:50:26.435Z,100482.56
2019-03-28T16:53:32.890Z,100479.42
2019-03-28T16:56:39.167Z,100486.86
2019-03-28T16:59:45.642Z,100491.52
2019-03-28T17:02:52.016Z,100490.84
2019-03-28T17:05:59.126Z,100486.25
2019-03-28T17:09:07.593Z,100489.89
2019-03-28T17:12:15.615Z,100492.25
2019-03-28T17:15:25.670Z,100492.67
2019-03-28T17:18:31.405Z,100489.87
2019-03-28T17:21:38.188Z,100494.29
2019-03-28T17:24:44.624Z,100497.06
2019-03-28T17:27:50.887Z,100490.77
2019-03-28T17:30:57.481Z,100494.35
2019-03-28T17:34:03.755Z,100500.55
2019-03-28T17:37:10.117Z,100499.71
2019-03-28T17:40:16.393Z,100498.98
2019-03-28T17:43:23.842Z,100510.02
2019-03-28T17:46:30.337Z,100503.73
2019-03-28T17:49:36.620Z,100504.48
2019-03-28T17:52:42.948Z,100506.23
2019-03-28T17:55:50.319Z,100509.04
2019-03-28T17:58:57.539Z,100507.49
2019-03-28T18:02:04.499Z,100520.78
2019-03-28T18:05:14.099Z,100517.08
2019-03-28T18:08:20.078Z,100522.64
2019-03-28T18:11:26.490Z,100520.97
2019-03-28T18:14:32.837Z,100525.34
2019-03-28T18:17:39.226Z,100529.69
2019-03-28T18:20:45.564Z,100531.61
2019-03-28T18:23:51.895Z,100536.31
2019-03-28T18:26:58.180Z,100532.77
2019-03-28T18:30:05.522Z,100535.16
2019-03-28T18:33:12.474Z,100541.66
2019-03-28T18:36:19.155Z,100542.39
2019-03-28T18:39:25.507Z,100540.84
2019-03-28T18:42:32.977Z,100540.12
2019-03-28T18:45:39.274Z,100540.54
2019-03-28T18:48:45.573Z,100543.01
2019-03-28T18:51:51.875Z,100550.34
2019-03-28T18:54:58.406Z,100554.72
2019-03-28T18:58:05.606Z,100562.45
2019-03-28T19:01:12.264Z,100559.75
2019-03-28T19:04:18.688Z,100570.94
2019-03-28T19:07:25.020Z,100573.83
2019-03-28T19:10:31.322Z,100580.48
2019-03-28T19:13:37.686Z,100588.22
2019-03-28T19:16:43.998Z,100590.09
2019-03-28T19:19:51.455Z,100590.45
2019-03-28T19:22:58.560Z,100586.04
2019-03-28T19:26:05.330Z,100591.14
2019-03-28T19:29:11.611Z,100594.49
2019-03-28T19:32:18.037Z,100595.24
2019-03-28T19:35:32.977Z,100595.77
2019-03-28T19:38:33.211Z,100600.13
2019-03-28T19:41:39.548Z,100607.42
2019-03-28T19:44:47.409Z,100607.02
2019-03-28T19:47:53.783Z,100611.06
2019-03-28T19:51:00.134Z,100618.53
2019-03-28T19:54:06.488Z,100623.87
2019-03-28T19:57:13.926Z,100626.18
2019-03-28T20:00:20.203Z,100623.33
2019-03-28T20:03:26.646Z,100631.52
2019-03-28T20:06:32.987Z,100636.28
2019-03-28T20:09:39.310Z,100637.73
2019-03-28T20:12:45.622Z,100638.41
2019-03-28T20:15:53.223Z,100638.06
2019-03-28T20:18:59.742Z,100643.73
2019-03-28T20:22:06.001Z,100640.87
2019-03-28T20:25:12.534Z,100636.83
2019-03-28T20:28:18.827Z,100646.32
2019-03-28T20:31:25.422Z,100656.23
2019-03-28T20:34:31.790Z,100657.83
2019-03-28T20:37:38.155Z,100655.28
2019-03-28T20:40:44.492Z,100654.20
2019-03-28T20:43:50.849Z,100651.30
2019-03-28T20:46:58.775Z,100656.89
2019-03-28T20:50:06.151Z,100666.56
2019-03-28T20:53:12.740Z,100658.55
2019-03-28T20:56:18.986Z,100662.83
2019-03-28T20:59:25.519Z,100653.66
2019-03-28T21:02:31.890Z,100662.17
2019-03-28T21:05:38.384Z,100666.01
2019-03-28T21:08:44.761Z,100673.19
2019-03-28T21:11:52.017Z,100677.37
2019-03-28T21:14:58.514Z,100676.22
2019-03-28T21:18:04.869Z,100677.39
2019-03-28T21:21:11.154Z,100677.19
2019-03-28T21:24:17.449Z,100678.73
2019-03-28T21:27:23.813Z,100683.22
2019-03-28T21:30:30.092Z,100685.09
2019-03-28T21:33:36.530Z,100680.77
2019-03-28T21:36:42.819Z,100687.84
2019-03-28T21:39:49.133Z,100698.20
2019-03-28T21:42:55.381Z,100694.77
2019-03-28T21:46:01.749Z,100694.22
2019-03-28T21:49:08.867Z,100697.99
2019-03-28T21:52:15.416Z,100693.47
2019-03-28T21:55:21.775Z,100699.01
2019-03-28T21:58:28.122Z,100702.69
2019-03-28T22:01:34.418Z,100700.23
2019-03-28T22:04:40.793Z,100705.59
2019-03-28T22:07:47.079Z,100707.19
2019-03-28T22:10:53.374Z,100706.36
2019-03-28T22:13:59.731Z,100710.32
2019-03-28T22:17:06.062Z,100705.92
2019-03-28T22:20:12.944Z,100698.78
2019-03-28T22:23:20.948Z,100705.67
2019-03-28T22:26:27.475Z,100712.95
2019-03-28T22:29:33.755Z,100733.64
2019-03-28T22:32:39.997Z,100727.77
2019-03-28T22:35:46.369Z,100728.11
2019-03-28T22:38:52.787Z,100722.47
2019-03-28T22:41:59.167Z,100723.65
2019-03-28T22:45:06.345Z,100729.27
2019-03-28T22:48:13.130Z,100725.37
2019-03-28T22:51:19.659Z,100728.67
2019-03-28T22:54:26.024Z,100722.55
2019-03-28T22:57:32.424Z,100720.27
2019-03-28T23:00:45.795Z,100724.39
2019-03-28T23:03:53.748Z,100726.84
2019-03-28T23:07:10.391Z,100715.57
2019-03-28T23:10:08.667Z,100720.05
2019-03-28T23:13:15.097Z,100719.95
2019-03-28T23:16:23.095Z,100727.89
2019-03-28T23:19:29.510Z,100728.13
2019-03-28T23:22:35.786Z,100730.72
2019-03-28T23:25:42.170Z,100729.76
2019-03-28T23:28:48.633Z,100738.75
2019-03-28T23:31:55.030Z,100731.69
2019-03-28T23:35:01.311Z,100730.66
2019-03-28T23:38:07.795Z,100732.12
2019-03-28T23:41:14.055Z,100727.86
2019-03-28T23:44:21.433Z,100732.69
2019-03-28T23:47:27.705Z,100736.54
2019-03-28T23:50:34.048Z,100734.72
2019-03-28T23:53:40.378Z,100738.81
2019-03-28T23:56:46.679Z,100738.75
2019-03-28T23:59:53.078Z,100729.51
